Time;durP1;ratioP1;P1;durP2;ratioP2;P2;SDS_P1;SDS_P2;PMS_P1;PMS_P2;Temp;Humidity;BMP_temperature;BMP_pressure;BME280_temperature;BME280_humidity;BME280_pressure;Samples;Min_cycle;Max_cycle;Signal;HPM_P1;HPM_P2
2023/02/12 00:03:48;;;;;;;;;;;17.20;47.70;;;;;;10078812;28;783;-70
2023/02/12 00:08:43;;;;;;;;;;;17.20;47.60;;;;;;10078670;28;1906;-71
2023/02/12 00:13:38;;;;;;;;;;;17.20;47.60;;;;;;10079599;28;947;-70
2023/02/12 00:18:34;;;;;;;;;;;17.20;47.60;;;;;;10077972;28;822;-71
2023/02/12 00:23:29;;;;;;;;;;;17.20;48.20;;;;;;10080840;28;860;-70
2023/02/12 00:28:25;;;;;;;;;;;17.20;47.60;;;;;;10085049;28;1961;-70
2023/02/12 00:33:20;;;;;;;;;;;17.20;47.60;;;;;;10084926;28;854;-70
2023/02/12 00:38:18;;;;;;;;;;;17.20;47.60;;;;;;10084214;28;988;-70
2023/02/12 00:43:13;;;;;;;;;;;17.20;47.60;;;;;;10084876;28;1092;-70
2023/02/12 00:48:09;;;;;;;;;;;17.20;47.60;;;;;;10084474;28;1976;-70
2023/02/12 00:53:04;;;;;;;;;;;17.20;47.60;;;;;;10084417;28;949;-70
2023/02/12 00:57:59;;;;;;;;;;;17.20;47.50;;;;;;10084952;28;822;-71
2023/02/12 01:02:55;;;;;;;;;;;17.10;47.50;;;;;;10084711;28;809;-70
2023/02/12 01:07:50;;;;;;;;;;;17.10;47.60;;;;;;10084453;28;1906;-71
2023/02/12 01:12:45;;;;;;;;;;;17.20;47.60;;;;;;10083132;28;1152;-70
2023/02/12 01:17:41;;;;;;;;;;;17.10;47.40;;;;;;10083636;28;830;-70
2023/02/12 01:22:36;;;;;;;;;;;17.20;47.60;;;;;;10083437;28;786;-70
2023/02/12 01:27:31;;;;;;;;;;;17.20;47.50;;;;;;10083860;28;1899;-71
2023/02/12 01:32:27;;;;;;;;;;;17.20;47.50;;;;;;10083748;28;802;-71
2023/02/12 01:37:22;;;;;;;;;;;17.20;47.50;;;;;;10081360;28;1004;-70
2023/02/12 01:42:18;;;;;;;;;;;17.10;47.40;;;;;;10083085;28;1106;-70
2023/02/12 01:47:13;;;;;;;;;;;17.20;47.50;;;;;;10082632;28;1972;-70
2023/02/12 01:52:08;;;;;;;;;;;17.10;47.40;;;;;;10083210;28;916;-70
2023/02/12 01:57:04;;;;;;;;;;;17.20;47.50;;;;;;10083011;28;739;-70
2023/02/12 02:01:59;;;;;;;;;;;17.10;47.40;;;;;;10081697;28;916;-70
2023/02/12 02:06:54;;;;;;;;;;;17.20;47.40;;;;;;10082764;28;1914;-70
2023/02/12 02:17:04;;;;;;;;;;;17.20;47.50;;;;;;10082113;29;616;-70
2023/02/12 02:21:59;;;;;;;;;;;17.20;47.50;;;;;;10082246;28;786;-70
2023/02/12 02:26:54;;;;;;;;;;;17.20;47.40;;;;;;10081289;28;1906;-70
2023/02/12 02:31:50;;;;;;;;;;;17.20;47.40;;;;;;10081408;28;930;-70
2023/02/12 02:36:46;;;;;;;;;;;17.10;47.40;;;;;;10082075;28;825;-70
2023/02/12 02:41:41;;;;;;;;;;;17.10;47.40;;;;;;10081447;28;1220;-70
2023/02/12 02:46:37;;;;;;;;;;;17.20;47.40;;;;;;10081109;28;2055;-71
2023/02/12 02:51:32;;;;;;;;;;;17.20;47.40;;;;;;10080850;28;789;-70
2023/02/12 02:56:27;;;;;;;;;;;17.10;47.40;;;;;;10080697;28;770;-70
2023/02/12 03:01:23;;;;;;;;;;;17.10;47.40;;;;;;10081133;28;889;-70
2023/02/12 03:06:18;;;;;;;;;;;17.20;47.40;;;;;;10080316;29;1907;-70
2023/02/12 03:11:14;;;;;;;;;;;17.20;47.40;;;;;;10080271;28;1049;-70
2023/02/12 03:16:09;;;;;;;;;;;17.20;47.40;;;;;;10079554;28;1019;-70
2023/02/12 03:21:04;;;;;;;;;;;17.10;47.40;;;;;;10079956;28;944;-70
2023/02/12 03:26:00;;;;;;;;;;;17.10;47.40;;;;;;10080767;28;1972;-71
2023/02/12 03:30:55;;;;;;;;;;;17.10;47.40;;;;;;10079915;28;940;-70
2023/02/12 03:35:50;;;;;;;;;;;17.10;47.50;;;;;;10079632;28;798;-71
2023/02/12 03:40:46;;;;;;;;;;;17.10;47.50;;;;;;10079374;28;1173;-70
2023/02/12 03:45:41;;;;;;;;;;;17.10;47.50;;;;;;10079307;28;1977;-71
2023/02/12 03:50:37;;;;;;;;;;;17.00;47.50;;;;;;10080018;28;862;-71
2023/02/12 03:55:32;;;;;;;;;;;17.10;47.50;;;;;;10079680;28;933;-70
2023/02/12 04:00:27;;;;;;;;;;;17.10;47.40;;;;;;10084367;28;825;-70
2023/02/12 04:05:23;;;;;;;;;;;17.20;47.40;;;;;;10086952;28;1895;-71
2023/02/12 04:10:19;;;;;;;;;;;17.20;47.40;;;;;;10085697;28;980;-70
2023/02/12 04:15:14;;;;;;;;;;;17.20;47.40;;;;;;10085486;28;810;-71
2023/02/12 04:20:10;;;;;;;;;;;17.10;47.30;;;;;;10085379;28;861;-70
2023/02/12 04:25:05;;;;;;;;;;;17.10;47.40;;;;;;10085822;28;1907;-70
2023/02/12 04:30:00;;;;;;;;;;;17.10;47.40;;;;;;10085120;28;767;-70
2023/02/12 04:34:56;;;;;;;;;;;17.10;47.40;;;;;;10084863;28;936;-71
2023/02/12 04:39:51;;;;;;;;;;;17.10;47.40;;;;;;10084156;28;1157;-71
2023/02/12 04:44:47;;;;;;;;;;;17.10;47.40;;;;;;10085664;28;1923;-70
2023/02/12 04:49:42;;;;;;;;;;;17.10;47.40;;;;;;10085488;28;866;-70
2023/02/12 04:54:37;;;;;;;;;;;17.10;47.40;;;;;;10083788;28;845;-71
2023/02/12 04:59:33;;;;;;;;;;;17.10;47.40;;;;;;10085229;28;849;-70
2023/02/12 05:04:28;;;;;;;;;;;17.10;47.40;;;;;;10084016;28;950;-70
2023/02/12 05:09:23;;;;;;;;;;;17.10;47.30;;;;;;10083589;28;1906;-70
2023/02/12 05:14:19;;;;;;;;;;;17.10;47.30;;;;;;10083235;28;963;-70
2023/02/12 05:19:14;;;;;;;;;;;17.10;47.30;;;;;;10084349;28;814;-70
2023/02/12 05:24:09;;;;;;;;;;;17.20;47.40;;;;;;10082900;28;1054;-71
2023/02/12 05:29:05;;;;;;;;;;;17.20;47.30;;;;;;10083275;28;1906;-70
2023/02/12 05:34:00;;;;;;;;;;;17.20;47.20;;;;;;10082608;28;901;-70
2023/02/12 05:38:56;;;;;;;;;;;17.20;47.30;;;;;;10083062;28;806;-70
2023/02/12 05:43:51;;;;;;;;;;;17.20;47.20;;;;;;10082202;28;1335;-70
2023/02/12 05:48:46;;;;;;;;;;;17.20;47.10;;;;;;10083241;28;1967;-71
2023/02/12 05:53:42;;;;;;;;;;;17.20;47.20;;;;;;10082610;28;803;-70
2023/02/12 05:58:37;;;;;;;;;;;17.30;47.20;;;;;;10082420;28;801;-71
2023/02/12 06:03:32;;;;;;;;;;;17.20;47.10;;;;;;10082211;28;894;-70
2023/02/12 06:08:28;;;;;;;;;;;17.20;47.10;;;;;;10082300;28;1956;-71
2023/02/12 06:13:23;;;;;;;;;;;17.30;47.10;;;;;;10082971;28;1050;-75
2023/02/12 06:18:18;;;;;;;;;;;17.30;47.10;;;;;;10081892;28;780;-76
2023/02/12 06:23:14;;;;;;;;;;;17.30;47.10;;;;;;10081560;28;940;-76
2023/02/12 06:28:09;;;;;;;;;;;17.30;47.10;;;;;;10081467;28;1950;-76
2023/02/12 06:33:04;;;;;;;;;;;17.30;47.20;;;;;;10082072;28;782;-76
2023/02/12 06:38:00;;;;;;;;;;;17.30;47.20;;;;;;10081252;28;814;-75
2023/02/12 06:42:55;;;;;;;;;;;17.30;47.10;;;;;;10082072;28;1293;-77
2023/02/12 06:47:50;;;;;;;;;;;17.30;47.10;;;;;;10080897;28;1911;-77
2023/02/12 06:52:46;;;;;;;;;;;17.30;47.10;;;;;;10081437;28;786;-78
2023/02/12 06:57:41;;;;;;;;;;;17.30;47.10;;;;;;10080935;28;927;-78
2023/02/12 07:02:37;;;;;;;;;;;17.30;47.10;;;;;;10080525;28;942;-77
2023/02/12 07:07:32;;;;;;;;;;;17.30;47.10;;;;;;10080364;28;1898;-74
2023/02/12 07:12:27;;;;;;;;;;;17.30;47.10;;;;;;10080325;28;1189;-75
2023/02/12 07:17:23;;;;;;;;;;;17.30;47.10;;;;;;10080935;28;795;-77
2023/02/12 07:22:19;;;;;;;;;;;17.30;47.10;;;;;;10080025;28;795;-78
2023/02/12 07:27:14;;;;;;;;;;;17.30;47.10;;;;;;10080316;28;1907;-77
2023/02/12 07:32:10;;;;;;;;;;;17.30;47.10;;;;;;10079653;28;762;-80
2023/02/12 07:37:06;;;;;;;;;;;17.30;47.10;;;;;;10079631;28;770;-77
2023/02/12 07:42:01;;;;;;;;;;;17.30;47.10;;;;;;10079373;28;1696;-80
2023/02/12 07:46:57;;;;;;;;;;;17.30;47.10;;;;;;10079302;28;1906;-80
2023/02/12 07:51:54;;;;;;;;;;;17.40;47.40;;;;;;10079203;28;1171;-79
2023/02/12 07:56:51;;;;;;;;;;;17.40;47.40;;;;;;10079110;28;863;-86
2023/02/12 08:01:46;;;;;;;;;;;17.40;47.50;;;;;;10079527;28;898;-82
2023/02/12 08:06:41;;;;;;;;;;;17.40;47.60;;;;;;10078267;28;1956;-74
2023/02/12 08:11:37;;;;;;;;;;;17.60;48.30;;;;;;10078849;28;853;-81
2023/02/12 08:16:32;;;;;;;;;;;17.70;48.70;;;;;;10078837;28;817;-81
2023/02/12 08:21:27;;;;;;;;;;;17.50;48.60;;;;;;10078559;28;780;-81
2023/02/12 08:26:23;;;;;;;;;;;17.50;48.60;;;;;;10078396;28;1899;-82
2023/02/12 08:31:18;;;;;;;;;;;17.40;48.30;;;;;;10078915;28;782;-81
2023/02/12 08:36:14;;;;;;;;;;;17.40;48.20;;;;;;10078365;28;814;-79
2023/02/12 08:41:09;;;;;;;;;;;17.40;48.10;;;;;;10078335;28;1145;-71
2023/02/12 08:46:05;;;;;;;;;;;17.50;48.20;;;;;;10083091;28;1915;-72
2023/02/12 08:51:00;;;;;;;;;;;17.60;49.10;;;;;;10084502;28;772;-72
2023/02/12 08:55:55;;;;;;;;;;;17.70;49.60;;;;;;10084504;28;924;-72
2023/02/12 09:00:51;;;;;;;;;;;17.80;49.80;;;;;;10082803;28;996;-72
2023/02/12 09:05:46;;;;;;;;;;;17.40;48.10;;;;;;10083939;28;1958;-77
2023/02/12 09:10:41;;;;;;;;;;;16.00;48.00;;;;;;10084566;28;921;-87
2023/02/12 09:15:37;;;;;;;;;;;16.50;49.30;;;;;;10082697;28;1200;-79
2023/02/12 09:20:32;;;;;;;;;;;16.90;48.60;;;;;;10083406;28;830;-79
2023/02/12 09:25:28;;;;;;;;;;;17.10;48.30;;;;;;10083499;28;1958;-79
2023/02/12 09:30:23;;;;;;;;;;;17.20;48.10;;;;;;10083060;28;858;-79
2023/02/12 09:35:18;;;;;;;;;;;17.30;48.30;;;;;;10082337;28;1047;-79
2023/02/12 09:40:14;;;;;;;;;;;17.30;48.10;;;;;;10082566;28;987;-79
2023/02/12 09:45:09;;;;;;;;;;;17.40;48.10;;;;;;10097788;28;1977;-79
2023/02/12 09:50:05;;;;;;;;;;;17.40;48.20;;;;;;10082953;28;817;-79
2023/02/12 09:55:00;;;;;;;;;;;17.40;48.20;;;;;;10080951;28;794;-79
2023/02/12 09:59:55;;;;;;;;;;;17.40;48.30;;;;;;10082282;28;968;-79
2023/02/12 10:04:51;;;;;;;;;;;17.40;48.30;;;;;;10082092;28;1915;-79
2023/02/12 10:09:46;;;;;;;;;;;17.40;48.30;;;;;;10082724;28;905;-79
2023/02/12 10:14:42;;;;;;;;;;;17.40;48.30;;;;;;10082193;28;904;-79
2023/02/12 10:19:37;;;;;;;;;;;17.40;48.40;;;;;;10081713;28;766;-78
2023/02/12 10:24:32;;;;;;;;;;;17.50;48.40;;;;;;10081690;28;802;-77
2023/02/12 10:29:28;;;;;;;;;;;17.50;48.40;;;;;;10080938;28;1968;-79
2023/02/12 10:34:23;;;;;;;;;;;17.50;48.50;;;;;;10081774;28;842;-79
2023/02/12 10:39:18;;;;;;;;;;;17.50;48.40;;;;;;10081577;28;853;-77
2023/02/12 10:44:14;;;;;;;;;;;17.50;48.50;;;;;;10080680;28;1271;-77
2023/02/12 10:49:09;;;;;;;;;;;17.50;48.50;;;;;;10080641;28;1982;-75
2023/02/12 10:54:04;;;;;;;;;;;17.50;48.50;;;;;;10080507;28;909;-75
2023/02/12 10:59:00;;;;;;;;;;;17.50;48.60;;;;;;10080217;28;897;-75
2023/02/12 11:03:55;;;;;;;;;;;17.50;48.70;;;;;;10080596;28;752;-77
2023/02/12 11:08:51;;;;;;;;;;;17.50;48.50;;;;;;10080295;28;1903;-76
2023/02/12 11:13:47;;;;;;;;;;;17.50;48.70;;;;;;10080596;28;818;-76
2023/02/12 11:18:43;;;;;;;;;;;17.50;48.70;;;;;;10079802;28;893;-77
2023/02/12 11:23:38;;;;;;;;;;;17.50;49.30;;;;;;10080467;28;766;-77
2023/02/12 11:28:34;;;;;;;;;;;17.50;48.70;;;;;;10078647;28;1972;-76
2023/02/12 11:33:30;;;;;;;;;;;17.50;48.70;;;;;;10079307;28;734;-77
2023/02/12 11:38:25;;;;;;;;;;;17.60;48.70;;;;;;10079385;28;842;-75
2023/02/12 11:43:20;;;;;;;;;;;17.50;48.80;;;;;;10080031;28;1141;-75
2023/02/12 11:48:16;;;;;;;;;;;17.50;48.90;;;;;;10079367;28;1973;-78
2023/02/12 11:53:11;;;;;;;;;;;17.50;48.70;;;;;;10079030;28;876;-78
2023/02/12 11:58:07;;;;;;;;;;;17.40;48.70;;;;;;10079230;28;934;-81
2023/02/12 12:03:02;;;;;;;;;;;17.50;48.70;;;;;;10099598;28;1241;-78
2023/02/12 12:07:58;;;;;;;;;;;17.40;48.50;;;;;;10079506;28;1932;-78
2023/02/12 12:12:53;;;;;;;;;;;17.40;48.50;;;;;;10079442;28;1234;-78
2023/02/12 12:23:03;;;;;;;;;;;17.40;48.40;;;;;;10084904;29;597;-76
2023/02/12 12:28:01;;;;;;;;;;;17.40;48.30;;;;;;10085396;28;1898;-76
2023/02/12 12:32:57;;;;;;;;;;;17.40;48.30;;;;;;10084709;28;814;-75
2023/02/12 12:37:52;;;;;;;;;;;17.40;48.30;;;;;;10085061;28;882;-75
2023/02/12 12:42:48;;;;;;;;;;;17.40;48.30;;;;;;10085109;28;1240;-75
2023/02/12 12:47:43;;;;;;;;;;;17.40;48.30;;;;;;10085377;28;1972;-75
2023/02/12 12:52:38;;;;;;;;;;;17.40;48.30;;;;;;10084121;28;1011;-78
2023/02/12 12:57:34;;;;;;;;;;;17.40;48.20;;;;;;10084412;28;778;-77
2023/02/12 13:02:29;;;;;;;;;;;17.40;48.10;;;;;;10084219;28;877;-78
2023/02/12 13:07:27;;;;;;;;;;;17.40;48.20;;;;;;10084132;28;1911;-78
2023/02/12 13:12:22;;;;;;;;;;;17.40;48.20;;;;;;10083849;28;974;-78
2023/02/12 13:17:17;;;;;;;;;;;17.40;48.10;;;;;;10083813;28;763;-78
2023/02/12 13:22:13;;;;;;;;;;;17.40;48.20;;;;;;10083619;28;803;-78
2023/02/12 13:27:08;;;;;;;;;;;17.40;48.10;;;;;;10083780;28;1958;-74
2023/02/12 13:32:03;;;;;;;;;;;17.40;48.10;;;;;;10083070;28;861;-74
2023/02/12 13:36:59;;;;;;;;;;;17.40;48.10;;;;;;10083765;28;882;-76
2023/02/12 13:41:54;;;;;;;;;;;17.40;48.10;;;;;;10082876;28;1299;-75
2023/02/12 13:46:52;;;;;;;;;;;;;;;;;;10083066;28;1915;-74
2023/02/12 13:51:48;;;;;;;;;;;;;;;;;;10082805;28;920;-75
2023/02/12 13:56:44;;;;;;;;;;;;;;;;;;10083343;28;837;-78
2023/02/12 14:01:43;;;;;;;;;;;;;;;;;;10082495;28;766;-75
2023/02/12 14:06:39;;;;;;;;;;;;;;;;;;10082140;28;1952;-77
2023/02/12 14:11:35;;;;;;;;;;;;;;;;;;10082177;28;893;-77
2023/02/12 14:16:30;;;;;;;;;;;;;;;;;;10081852;28;980;-77
2023/02/12 14:21:26;;;;;;;;;;;;;;;;;;10082151;28;767;-76
2023/02/12 14:26:22;;;;;;;;;;;;;;;;;;10081319;28;1886;-76
2023/02/12 14:31:21;;;;;;;;;;;;;;;;;;10095619;28;1521;-77
2023/02/12 14:36:17;;;;;;;;;;;;;;;;;;10081025;28;961;-77
2023/02/12 14:41:32;;;;;;;;;;;;;;;;;;10080166;28;1259;-77
2023/02/12 14:46:28;;;;;;;;;;;;;;;;;;10080846;28;1919;-77
2023/02/12 14:51:24;;;;;;;;;;;;;;;;;;10081241;28;887;-77
2023/02/12 14:56:20;;;;;;;;;;;;;;;;;;10080468;28;770;-77
2023/02/12 15:01:16;;;;;;;;;;;;;;;;;;10080374;28;777;-77
2023/02/12 15:06:12;;;;;;;;;;;;;;;;;;10080210;28;2015;-77
2023/02/12 15:11:08;;;;;;;;;;;;;;;;;;10080302;28;968;-79
2023/02/12 15:16:03;;;;;;;;;;;;;;;;;;10078583;28;1154;-79
2023/02/12 15:21:00;;;;;;;;;;;;;;;;;;10080076;28;833;-79
2023/02/12 15:25:56;;;;;;;;;;;;;;;;;;10080254;28;1899;-78
2023/02/12 15:30:52;;;;;;;;;;;;;;;;;;10080071;28;877;-79
2023/02/12 15:35:47;;;;;;;;;;;;;;;;;;10079493;28;893;-78
2023/02/12 15:40:43;;;;;;;;;;;;;;;;;;10078684;28;1149;-78
2023/02/12 15:45:39;;;;;;;;;;;;;;;;;;10078985;28;1911;-78
2023/02/12 15:50:35;;;;;;;;;;;;;;;;;;10079009;28;898;-79
2023/02/12 15:55:31;;;;;;;;;;;;;;;;;;10083631;28;953;-79
2023/02/12 16:00:27;;;;;;;;;;;;;;;;;;10085905;28;964;-79
2023/02/12 16:05:23;;;;;;;;;;;;;;;;;;10085669;28;1950;-78
2023/02/12 16:10:19;;;;;;;;;;;;;;;;;;10085498;28;1643;-79
2023/02/12 16:15:14;;;;;;;;;;;;;;;;;;10085673;28;841;-78
2023/02/12 16:20:11;;;;;;;;;;;;;;;;;;10085855;28;790;-79
2023/02/12 16:25:07;;;;;;;;;;;;;;;;;;10084989;28;1891;-78
2023/02/12 16:30:03;;;;;;;;;;;;;;;;;;10085704;28;937;-78
2023/02/12 16:34:59;;;;;;;;;;;;;;;;;;10085066;28;869;-79
2023/02/12 16:39:55;;;;;;;;;;;;;;;;;;10084908;28;927;-76
2023/02/12 16:44:51;;;;;;;;;;;;;;;;;;10086489;28;1244;-78
2023/02/12 16:49:47;;;;;;;;;;;;;;;;;;10123814;28;1918;-79
2023/02/12 16:54:43;;;;;;;;;;;;;;;;;;10123743;28;976;-78
2023/02/12 16:59:42;;;;;;;;;;;;;;;;;;10123712;28;893;-74
2023/02/12 17:04:38;;;;;;;;;;;;;;;;;;10123519;28;849;-78
2023/02/12 17:09:34;;;;;;;;;;;;;;;;;;10123226;28;1891;-77
2023/02/12 17:14:29;;;;;;;;;;;;;;;;;;10123561;28;972;-77
2023/02/12 17:19:25;;;;;;;;;;;;;;;;;;10122979;28;856;-76
2023/02/12 17:24:21;;;;;;;;;;;;;;;;;;10122792;28;863;-77
2023/02/12 17:29:17;;;;;;;;;;;;;;;;;;10122681;28;1940;-77
2023/02/12 17:34:13;;;;;;;;;;;;;;;;;;10122693;28;885;-79
2023/02/12 17:39:09;;;;;;;;;;;;;;;;;;10123314;28;864;-79
2023/02/12 17:44:05;;;;;;;;;;;;;;;;;;10122142;28;1135;-79
2023/02/12 17:49:01;;;;;;;;;;;;;;;;;;10122371;28;1981;-79
2023/02/12 17:53:57;;;;;;;;;;;;;;;;;;10121998;28;877;-80
2023/02/12 17:58:53;;;;;;;;;;;;;;;;;;10121883;28;861;-79
2023/02/12 18:03:50;;;;;;;;;;;;;;;;;;10121643;28;858;-79
2023/02/12 18:08:46;;;;;;;;;;;;;;;;;;10121999;28;1954;-79
2023/02/12 18:13:42;;;;;;;;;;;;;;;;;;10121976;28;978;-75
2023/02/12 18:18:38;;;;;;;;;;;;;;;;;;10096519;28;988;-75
2023/02/12 18:23:34;;;;;;;;;;;;;;;;;;10081431;28;1133;-74
2023/02/12 18:28:30;;;;;;;;;;;;;;;;;;10081601;28;1887;-77
2023/02/12 18:33:26;;;;;;;;;;;;;;;;;;10082418;28;841;-77
2023/02/12 18:38:22;;;;;;;;;;;;;;;;;;10081969;28;869;-77
2023/02/12 18:43:18;;;;;;;;;;;;;;;;;;10081571;28;1146;-77
2023/02/12 18:48:14;;;;;;;;;;;;;;;;;;10080720;28;1972;-77
2023/02/12 18:53:09;;;;;;;;;;;;;;;;;;10081568;28;845;-77
2023/02/12 18:58:05;;;;;;;;;;;;;;;;;;10080684;28;854;-77
2023/02/12 19:03:01;;;;;;;;;;;;;;;;;;10080655;28;885;-77
2023/02/12 19:07:57;;;;;;;;;;;;;;;;;;10081019;28;1891;-74
2023/02/12 19:12:53;;;;;;;;;;;;;;;;;;10079823;28;843;-74
2023/02/12 19:17:49;;;;;;;;;;;;;;;;;;10079723;28;925;-75
2023/02/12 19:22:45;;;;;;;;;;;;;;;;;;10080163;28;900;-76
2023/02/12 19:27:40;;;;;;;;;;;;;;;;;;10080039;28;1957;-76
2023/02/12 19:32:37;;;;;;;;;;;;;;;;;;10079854;28;774;-76
2023/02/12 19:37:32;;;;;;;;;;;;;;;;;;10079718;28;878;-76
2023/02/12 19:42:29;;;;;;;;;;;;;;;;;;10079092;28;1220;-76
2023/02/12 19:47:25;;;;;;;;;;;;;;;;;;10079390;28;1982;-76
2023/02/12 19:52:21;;;;;;;;;;;;;;;;;;10079197;28;858;-76
2023/02/12 19:57:17;;;;;;;;;;;;;;;;;;10079282;28;779;-76
2023/02/12 20:02:13;;;;;;;;;;;;;;;;;;10079745;28;830;-76
2023/02/12 20:07:09;;;;;;;;;;;;;;;;;;10078929;28;1950;-76
2023/02/12 20:12:05;;;;;;;;;;;;;;;;;;10078822;28;930;-76
2023/02/12 20:17:01;;;;;;;;;;;;;;;;;;10079558;28;885;-76
2023/02/12 20:21:57;;;;;;;;;;;;;;;;;;10078495;28;778;-76
2023/02/12 20:26:52;;;;;;;;;;;18.00;50.00;;;;;;10078406;28;1890;-78
2023/02/12 20:31:47;;;;;;;;;;;18.00;50.50;;;;;;10078425;28;826;-76
2023/02/12 20:36:44;;;;;;;;;;;18.00;50.00;;;;;;10078324;28;793;-74
2023/02/12 20:41:40;;;;;;;;;;;17.90;50.10;;;;;;10082821;28;1579;-74
2023/02/12 20:46:38;;;;;;;;;;;17.90;50.00;;;;;;10085255;28;1915;-77
2023/02/12 20:51:33;;;;;;;;;;;17.80;50.00;;;;;;10084505;28;783;-83
2023/02/12 20:56:28;;;;;;;;;;;17.90;50.10;;;;;;10084498;28;1180;-82
2023/02/12 21:01:24;;;;;;;;;;;17.80;50.10;;;;;;10084396;28;883;-83
2023/02/12 21:06:19;;;;;;;;;;;17.80;50.00;;;;;;10084134;28;1907;-83
2023/02/12 21:11:14;;;;;;;;;;;17.70;50.00;;;;;;10084415;28;969;-84
2023/02/12 21:16:10;;;;;;;;;;;17.70;50.00;;;;;;10083992;28;819;-84
2023/02/12 21:21:05;;;;;;;;;;;17.70;49.90;;;;;;10083584;28;885;-84
2023/02/12 21:26:01;;;;;;;;;;;17.70;49.90;;;;;;10083611;28;1972;-84
2023/02/12 21:30:56;;;;;;;;;;;17.70;49.80;;;;;;10084059;28;963;-82
2023/02/12 21:35:51;;;;;;;;;;;17.70;49.70;;;;;;10082770;28;829;-82
2023/02/12 21:40:47;;;;;;;;;;;17.70;49.80;;;;;;10083819;28;1453;-82
2023/02/12 21:45:42;;;;;;;;;;;17.70;49.80;;;;;;10083783;28;1914;-82
2023/02/12 21:50:38;;;;;;;;;;;17.70;49.70;;;;;;10082503;28;861;-82
2023/02/12 21:55:33;;;;;;;;;;;17.70;49.70;;;;;;10082750;28;782;-82
2023/02/12 22:00:28;;;;;;;;;;;17.70;49.60;;;;;;10083801;28;913;-82
2023/02/12 22:05:24;;;;;;;;;;;17.70;49.60;;;;;;10082678;28;1902;-83
2023/02/12 22:10:19;;;;;;;;;;;17.70;49.60;;;;;;10082290;28;842;-85
2023/02/12 22:15:14;;;;;;;;;;;17.70;49.60;;;;;;10082171;28;874;-89
2023/02/12 22:20:10;;;;;;;;;;;17.70;49.60;;;;;;10082351;28;885;-78
2023/02/12 22:25:05;;;;;;;;;;;17.70;50.20;;;;;;10082345;28;825;-76
2023/02/12 22:30:03;;;;;;;;;;;17.70;49.50;;;;;;10081696;28;1895;-76
2023/02/12 22:34:58;;;;;;;;;;;17.70;49.50;;;;;;10081472;28;901;-76
2023/02/12 22:39:53;;;;;;;;;;;17.70;49.50;;;;;;10081269;28;1094;-75
2023/02/12 22:44:49;;;;;;;;;;;17.70;49.60;;;;;;10080627;28;1272;-79
2023/02/12 22:49:44;;;;;;;;;;;17.70;49.50;;;;;;10080988;28;1911;-78
2023/02/12 22:54:39;;;;;;;;;;;17.60;49.60;;;;;;10080754;28;809;-83
2023/02/12 22:59:35;;;;;;;;;;;17.70;49.60;;;;;;10080820;28;810;-83
2023/02/12 23:04:30;;;;;;;;;;;17.70;49.50;;;;;;10080751;28;889;-83
2023/02/12 23:09:26;;;;;;;;;;;17.70;49.50;;;;;;10080501;28;1906;-84
2023/02/12 23:14:22;;;;;;;;;;;17.70;49.50;;;;;;10080428;28;771;-84
2023/02/12 23:19:17;;;;;;;;;;;17.60;49.50;;;;;;10081583;28;872;-84
2023/02/12 23:24:15;;;;;;;;;;;17.60;49.60;;;;;;10080667;28;837;-84
2023/02/12 23:29:10;;;;;;;;;;;17.60;49.40;;;;;;10079349;28;1883;-84
2023/02/12 23:34:06;;;;;;;;;;;17.60;49.40;;;;;;10080360;28;856;-84
2023/02/12 23:39:04;;;;;;;;;;;17.60;49.40;;;;;;10079809;28;772;-84
2023/02/12 23:43:59;;;;;;;;;;;17.60;49.50;;;;;;10080466;28;1345;-83
2023/02/12 23:48:55;;;;;;;;;;;17.60;49.50;;;;;;10079597;28;1984;-83
2023/02/12 23:53:50;;;;;;;;;;;17.60;49.50;;;;;;10078597;28;846;-83
2023/02/12 23:58:45;;;;;;;;;;;17.60;49.50;;;;;;10079858;28;838;-84
